Weather at Camp Withycombe Heliport

Public forecast

Using degrees Fahrenheit for public forecast. Weather courtesy of forecast.io.

Closest aviation weather report (METAR) to Camp Withycombe Heliport

Closest report is Portland Troutdale Airport, 10.5 nm (19.4 km) NE. Retrieved 2021/06/21 08:53 UTC (14 minutes ago):

KTTD 210853Z AUTO 00000KT 10SM CLR 20/15 A2982 RMK AO2 SLP098 T02000150 57001

Closest aviation forecast (TAF) to Camp Withycombe Heliport

Closest forecast is Portland Troutdale Airport, 10.5 nm (19.4 km) NE. Retrieved 2021/06/21 06:22 UTC (3 hours ago):

TAF KTTD 210520Z 2106/2206 07005KT P6SM SKC FM211600 VRB05KT P6SM SKC FM212200 29004KT P6SM SKC